首页
METAR-TAF:

METAR-TAF

机场 :

Sligo, 爱尔兰

纬度: 54-16-49N, 经度: 8-35-57W, 海拔: 3米

当前天气观测

该预报发布于7小时和32分钟前的18:00 UTC
风速6节,风向南转南东,在东转东南之间变化
温度 11°C
湿度 76%
气压 997 hPa
能见度10公里或以上
1500米以下无云,无积雨云

METAR: EISG 161800Z 16006KT 120V190 CAVOK 11/07 Q0997

时间: 02:32 (01:32 UTC)

预报

该预报发布于2小时和32分钟前的23:00 UTC
预报有效从17日的 00点(UTC)到 17日的 09点(UTC)
风速13节,风向南转南东
能见度10公里或以上
少量云层高于4000英尺
短暂存在
从 17日的 00点(UTC)到 17日的 06点(UTC)
风速15节,风向南转南东,有时为25节阵风
少量云层高于2000英尺, 积雨云.
小阵雨
短暂存在
从 17日的 06点(UTC)到 17日的 09点(UTC)
能見度: 4000
散云层高于2000英尺, 积雨云.
阵雨

TAF: EISG 162300Z 1700/1709 16013KT 9999 FEW040 TEMPO 1700/1706 16015G25KT -SHRA FEW020CB TEMPO 1706/1709 4000 SHRA SCT020CB

超过4000个机场的气象观测和天气预报(METAR&TAF报告)。

可查询的气象台以黄色和红色小点在地图上表示。

将鼠标移到小点上方,可查看气象台名称。

然后点击查看天气观测和预报。

如需切换地图:点击带黑十字的绿色按钮放大地图;点击带横线的绿色按钮缩小地图;或者点击绿色箭头查看邻近地区的地图。


METAR-TAF: